sensor_id;sensor_type;location;lat;lon;timestamp;pressure;altitude;pressure_sealevel;temperature;humidity
76378;BME280;65200;49.500;8.654;2023-06-10T00:00:15;100045.75;;;22.58;40.72
76378;BME280;65200;49.500;8.654;2023-06-10T00:02:42;100043.53;;;22.50;41.52
76378;BME280;65200;49.500;8.654;2023-06-10T00:05:09;100043.03;;;22.28;42.42
76378;BME280;65200;49.500;8.654;2023-06-10T00:07:36;100032.63;;;22.30;42.48
76378;BME280;65200;49.500;8.654;2023-06-10T00:10:03;100048.19;;;22.04;42.51
76378;BME280;65200;49.500;8.654;2023-06-10T00:12:31;100039.47;;;21.92;42.81
76378;BME280;65200;49.500;8.654;2023-06-10T00:15:04;100039.66;;;21.60;44.38
76378;BME280;65200;49.500;8.654;2023-06-10T00:17:31;100053.72;;;21.22;47.99
76378;BME280;65200;49.500;8.654;2023-06-10T00:19:57;100050.00;;;20.87;48.82
76378;BME280;65200;49.500;8.654;2023-06-10T00:22:24;100056.75;;;20.32;51.33
76378;BME280;65200;49.500;8.654;2023-06-10T00:24:54;100046.81;;;19.90;52.67
76378;BME280;65200;49.500;8.654;2023-06-10T00:27:21;100057.56;;;19.75;53.33
76378;BME280;65200;49.500;8.654;2023-06-10T00:29:47;100064.81;;;19.64;53.69
76378;BME280;65200;49.500;8.654;2023-06-10T00:32:15;100048.13;;;19.56;54.23
76378;BME280;65200;49.500;8.654;2023-06-10T00:34:41;100052.63;;;19.45;54.13
76378;BME280;65200;49.500;8.654;2023-06-10T00:37:08;100051.38;;;19.31;55.01
76378;BME280;65200;49.500;8.654;2023-06-10T00:39:34;100046.63;;;19.22;55.57
76378;BME280;65200;49.500;8.654;2023-06-10T00:42:00;100059.44;;;19.04;56.17
76378;BME280;65200;49.500;8.654;2023-06-10T00:44:27;100053.94;;;18.99;55.98
76378;BME280;65200;49.500;8.654;2023-06-10T00:46:54;100057.09;;;18.91;57.53
76378;BME280;65200;49.500;8.654;2023-06-10T00:49:22;100060.00;;;18.85;57.99
76378;BME280;65200;49.500;8.654;2023-06-10T00:51:48;100055.50;;;18.74;57.69
76378;BME280;65200;49.500;8.654;2023-06-10T00:54:16;100054.03;;;18.66;57.13
76378;BME280;65200;49.500;8.654;2023-06-10T00:56:43;100056.03;;;18.54;59.00
76378;BME280;65200;49.500;8.654;2023-06-10T00:59:09;100064.16;;;18.38;59.21
76378;BME280;65200;49.500;8.654;2023-06-10T01:01:36;100065.09;;;18.43;59.36
76378;BME280;65200;49.500;8.654;2023-06-10T01:04:04;100067.03;;;18.31;59.51
76378;BME280;65200;49.500;8.654;2023-06-10T01:06:36;100066.06;;;18.37;58.38
76378;BME280;65200;49.500;8.654;2023-06-10T01:09:17;100070.81;;;18.30;59.04
76378;BME280;65200;49.500;8.654;2023-06-10T01:11:49;100063.78;;;18.29;58.81
76378;BME280;65200;49.500;8.654;2023-06-10T01:14:18;100069.75;;;18.31;58.95
76378;BME280;65200;49.500;8.654;2023-06-10T01:16:46;100071.50;;;18.37;57.61
76378;BME280;65200;49.500;8.654;2023-06-10T01:19:13;100064.75;;;18.56;58.49
76378;BME280;65200;49.500;8.654;2023-06-10T01:21:44;100067.06;;;18.48;59.05
76378;BME280;65200;49.500;8.654;2023-06-10T01:24:14;100081.63;;;18.58;58.43
76378;BME280;65200;49.500;8.654;2023-06-10T01:26:44;100071.25;;;18.55;57.80
76378;BME280;65200;49.500;8.654;2023-06-10T01:29:16;100074.97;;;18.33;59.72
76378;BME280;65200;49.500;8.654;2023-06-10T01:31:49;100074.47;;;18.19;58.76
76378;BME280;65200;49.500;8.654;2023-06-10T01:34:18;100076.75;;;18.11;59.67
76378;BME280;65200;49.500;8.654;2023-06-10T01:36:47;100081.19;;;18.00;59.37
76378;BME280;65200;49.500;8.654;2023-06-10T01:39:15;100082.34;;;18.04;60.04
76378;BME280;65200;49.500;8.654;2023-06-10T01:41:42;100089.88;;;18.02;60.07
76378;BME280;65200;49.500;8.654;2023-06-10T01:44:09;100084.31;;;17.92;60.64
76378;BME280;65200;49.500;8.654;2023-06-10T01:46:35;100082.63;;;17.91;60.24
76378;BME280;65200;49.500;8.654;2023-06-10T01:49:02;100078.84;;;17.75;60.61
76378;BME280;65200;49.500;8.654;2023-06-10T01:51:28;100079.66;;;17.76;62.29
76378;BME280;65200;49.500;8.654;2023-06-10T01:53:58;100074.97;;;17.71;62.30
76378;BME280;65200;49.500;8.654;2023-06-10T01:56:24;100079.75;;;17.81;60.84
76378;BME280;65200;49.500;8.654;2023-06-10T01:58:50;100080.66;;;17.87;62.34
76378;BME280;65200;49.500;8.654;2023-06-10T02:01:20;100074.22;;;17.59;63.12
76378;BME280;65200;49.500;8.654;2023-06-10T02:03:46;100087.22;;;17.46;63.98
76378;BME280;65200;49.500;8.654;2023-06-10T02:06:13;100085.69;;;17.38;64.81
76378;BME280;65200;49.500;8.654;2023-06-10T02:08:39;100081.22;;;17.32;64.68
76378;BME280;65200;49.500;8.654;2023-06-10T02:11:07;100086.00;;;17.14;64.49
76378;BME280;65200;49.500;8.654;2023-06-10T02:13:33;100077.75;;;17.20;63.82
76378;BME280;65200;49.500;8.654;2023-06-10T02:16:00;100086.56;;;17.16;63.15
76378;BME280;65200;49.500;8.654;2023-06-10T02:18:27;100087.72;;;17.31;64.02
76378;BME280;65200;49.500;8.654;2023-06-10T02:20:54;100081.94;;;17.28;63.79
76378;BME280;65200;49.500;8.654;2023-06-10T02:23:20;100083.00;;;17.38;63.84
76378;BME280;65200;49.500;8.654;2023-06-10T02:25:47;100088.75;;;17.30;62.67
76378;BME280;65200;49.500;8.654;2023-06-10T02:28:15;100090.06;;;17.28;63.87
76378;BME280;65200;49.500;8.654;2023-06-10T02:30:41;100094.56;;;17.22;63.62
76378;BME280;65200;49.500;8.654;2023-06-10T02:33:08;100088.06;;;17.35;63.15
76378;BME280;65200;49.500;8.654;2023-06-10T02:35:36;100090.59;;;17.13;64.14
76378;BME280;65200;49.500;8.654;2023-06-10T02:38:02;100093.44;;;17.07;65.26
76378;BME280;65200;49.500;8.654;2023-06-10T02:40:29;100093.56;;;16.89;66.37
76378;BME280;65200;49.500;8.654;2023-06-10T02:42:55;100094.88;;;16.86;64.66
76378;BME280;65200;49.500;8.654;2023-06-10T02:45:23;100097.00;;;16.61;66.17
76378;BME280;65200;49.500;8.654;2023-06-10T02:47:49;100103.25;;;16.85;64.14
76378;BME280;65200;49.500;8.654;2023-06-10T02:50:16;100104.03;;;16.97;65.34
76378;BME280;65200;49.500;8.654;2023-06-10T02:52:43;100096.53;;;16.87;65.20
76378;BME280;65200;49.500;8.654;2023-06-10T02:55:09;100103.81;;;16.75;66.12
76378;BME280;65200;49.500;8.654;2023-06-10T02:57:36;100091.13;;;16.76;65.00
76378;BME280;65200;49.500;8.654;2023-06-10T03:00:03;100095.56;;;16.82;64.66
76378;BME280;65200;49.500;8.654;2023-06-10T03:02:35;100102.78;;;16.88;65.77
76378;BME280;65200;49.500;8.654;2023-06-10T03:05:04;100105.34;;;16.83;66.16
76378;BME280;65200;49.500;8.654;2023-06-10T03:07:30;100107.00;;;16.61;67.71
76378;BME280;65200;49.500;8.654;2023-06-10T03:09:57;100102.25;;;16.44;66.98
76378;BME280;65200;49.500;8.654;2023-06-10T03:12:23;100104.72;;;16.34;67.54
76378;BME280;65200;49.500;8.654;2023-06-10T03:14:50;100107.91;;;16.43;67.25
76378;BME280;65200;49.500;8.654;2023-06-10T03:17:17;100103.91;;;16.34;67.33
76378;BME280;65200;49.500;8.654;2023-06-10T03:19:44;100110.59;;;16.31;67.35
76378;BME280;65200;49.500;8.654;2023-06-10T03:22:12;100114.59;;;16.29;68.10
76378;BME280;65200;49.500;8.654;2023-06-10T03:24:38;100117.28;;;16.17;68.40
76378;BME280;65200;49.500;8.654;2023-06-10T03:27:06;100113.78;;;16.28;68.28
76378;BME280;65200;49.500;8.654;2023-06-10T03:29:32;100116.13;;;16.25;68.34
76378;BME280;65200;49.500;8.654;2023-06-10T03:31:59;100121.53;;;16.25;69.02
76378;BME280;65200;49.500;8.654;2023-06-10T03:34:25;100120.00;;;16.29;69.37
76378;BME280;65200;49.500;8.654;2023-06-10T03:36:53;100124.84;;;16.38;68.17
76378;BME280;65200;49.500;8.654;2023-06-10T03:39:19;100115.19;;;16.42;67.90
76378;BME280;65200;49.500;8.654;2023-06-10T03:41:46;100116.31;;;16.53;68.01
76378;BME280;65200;49.500;8.654;2023-06-10T03:44:13;100115.59;;;16.58;67.08
76378;BME280;65200;49.500;8.654;2023-06-10T03:46:40;100122.50;;;16.42;68.52
76378;BME280;65200;49.500;8.654;2023-06-10T03:49:06;100120.13;;;16.22;69.43
76378;BME280;65200;49.500;8.654;2023-06-10T03:51:32;100125.66;;;16.27;69.37
76378;BME280;65200;49.500;8.654;2023-06-10T03:54:00;100122.44;;;16.07;69.05
76378;BME280;65200;49.500;8.654;2023-06-10T03:56:27;100129.41;;;16.26;68.78
76378;BME280;65200;49.500;8.654;2023-06-10T03:58:53;100131.19;;;16.32;68.68
76378;BME280;65200;49.500;8.654;2023-06-10T04:01:20;100127.88;;;16.30;69.76
76378;BME280;65200;49.500;8.654;2023-06-10T04:03:48;100134.34;;;16.18;69.92
76378;BME280;65200;49.500;8.654;2023-06-10T04:06:16;100136.00;;;16.30;70.79
76378;BME280;65200;49.500;8.654;2023-06-10T04:08:43;100133.63;;;16.11;70.29
76378;BME280;65200;49.500;8.654;2023-06-10T04:11:11;100129.59;;;16.13;70.94
76378;BME280;65200;49.500;8.654;2023-06-10T04:13:37;100133.53;;;15.88;72.69
76378;BME280;65200;49.500;8.654;2023-06-10T04:16:04;100128.38;;;15.86;72.62
76378;BME280;65200;49.500;8.654;2023-06-10T04:18:31;100132.44;;;16.18;72.02
76378;BME280;65200;49.500;8.654;2023-06-10T04:20:57;100135.19;;;16.41;70.94
76378;BME280;65200;49.500;8.654;2023-06-10T04:23:24;100129.78;;;16.41;73.22
76378;BME280;65200;49.500;8.654;2023-06-10T04:25:51;100140.34;;;16.31;72.38
76378;BME280;65200;49.500;8.654;2023-06-10T04:28:19;100135.63;;;16.27;72.53
76378;BME280;65200;49.500;8.654;2023-06-10T04:30:45;100137.28;;;16.28;73.12
76378;BME280;65200;49.500;8.654;2023-06-10T04:33:11;100138.09;;;16.17;72.74
76378;BME280;65200;49.500;8.654;2023-06-10T04:35:38;100142.00;;;16.32;71.62
76378;BME280;65200;49.500;8.654;2023-06-10T04:38:04;100142.16;;;16.49;70.71
76378;BME280;65200;49.500;8.654;2023-06-10T04:40:31;100143.06;;;16.31;73.06
76378;BME280;65200;49.500;8.654;2023-06-10T04:42:57;100142.75;;;16.51;72.28
76378;BME280;65200;49.500;8.654;2023-06-10T04:45:25;100145.72;;;16.73;72.11
76378;BME280;65200;49.500;8.654;2023-06-10T04:47:51;100137.97;;;16.65;73.55
76378;BME280;65200;49.500;8.654;2023-06-10T04:50:20;100138.06;;;16.81;72.35
76378;BME280;65200;49.500;8.654;2023-06-10T04:52:46;100145.47;;;16.86;73.54
76378;BME280;65200;49.500;8.654;2023-06-10T04:55:13;100146.19;;;16.93;75.49
76378;BME280;65200;49.500;8.654;2023-06-10T04:57:40;100135.69;;;17.08;76.24
76378;BME280;65200;49.500;8.654;2023-06-10T05:00:07;100149.56;;;17.23;75.07
76378;BME280;65200;49.500;8.654;2023-06-10T05:02:35;100147.78;;;17.28;74.65
76378;BME280;65200;49.500;8.654;2023-06-10T05:05:01;100154.97;;;17.46;77.97
76378;BME280;65200;49.500;8.654;2023-06-10T05:07:28;100155.97;;;17.56;75.35
76378;BME280;65200;49.500;8.654;2023-06-10T05:09:54;100151.88;;;17.54;74.15
76378;BME280;65200;49.500;8.654;2023-06-10T05:12:21;100152.56;;;17.61;73.01
76378;BME280;65200;49.500;8.654;2023-06-10T05:14:47;100148.88;;;17.67;73.36
76378;BME280;65200;49.500;8.654;2023-06-10T05:17:14;100153.91;;;17.75;73.12
76378;BME280;65200;49.500;8.654;2023-06-10T05:19:41;100151.41;;;17.85;71.19
76378;BME280;65200;49.500;8.654;2023-06-10T05:22:08;100158.91;;;17.95;69.80
76378;BME280;65200;49.500;8.654;2023-06-10T05:24:35;100163.44;;;18.06;65.81
76378;BME280;65200;49.500;8.654;2023-06-10T05:27:01;100166.59;;;18.14;67.37
76378;BME280;65200;49.500;8.654;2023-06-10T05:29:28;100163.38;;;18.17;64.86
76378;BME280;65200;49.500;8.654;2023-06-10T05:31:54;100172.09;;;18.19;66.03
76378;BME280;65200;49.500;8.654;2023-06-10T05:34:22;100172.78;;;18.26;64.78
76378;BME280;65200;49.500;8.654;2023-06-10T05:36:50;100170.34;;;18.41;65.29
76378;BME280;65200;49.500;8.654;2023-06-10T05:39:16;100172.50;;;18.56;63.63
76378;BME280;65200;49.500;8.654;2023-06-10T05:41:43;100172.31;;;18.62;63.72
76378;BME280;65200;49.500;8.654;2023-06-10T05:44:09;100177.22;;;18.60;65.25
76378;BME280;65200;49.500;8.654;2023-06-10T05:46:36;100171.78;;;18.60;64.95
76378;BME280;65200;49.500;8.654;2023-06-10T05:49:02;100184.34;;;18.66;65.10
76378;BME280;65200;49.500;8.654;2023-06-10T05:51:29;100175.53;;;18.76;64.38
76378;BME280;65200;49.500;8.654;2023-06-10T05:53:56;100183.19;;;18.95;64.36
76378;BME280;65200;49.500;8.654;2023-06-10T05:56:23;100186.47;;;18.97;64.63
76378;BME280;65200;49.500;8.654;2023-06-10T05:58:51;100187.19;;;19.09;64.42
76378;BME280;65200;49.500;8.654;2023-06-10T06:01:17;100188.41;;;19.19;63.48
76378;BME280;65200;49.500;8.654;2023-06-10T06:03:43;100186.56;;;19.24;63.32
76378;BME280;65200;49.500;8.654;2023-06-10T06:06:10;100185.63;;;19.30;64.36
76378;BME280;65200;49.500;8.654;2023-06-10T06:08:37;100191.22;;;19.24;65.52
76378;BME280;65200;49.500;8.654;2023-06-10T06:11:04;100190.81;;;19.32;65.66
76378;BME280;65200;49.500;8.654;2023-06-10T06:13:31;100201.25;;;19.40;63.69
76378;BME280;65200;49.500;8.654;2023-06-10T06:15:57;100186.63;;;19.46;64.76
76378;BME280;65200;49.500;8.654;2023-06-10T06:18:24;100189.88;;;19.64;65.05
76378;BME280;65200;49.500;8.654;2023-06-10T06:20:50;100192.69;;;19.74;62.61
76378;BME280;65200;49.500;8.654;2023-06-10T06:23:16;100181.13;;;19.84;61.60
76378;BME280;65200;49.500;8.654;2023-06-10T06:25:43;100187.19;;;19.91;61.38
76378;BME280;65200;49.500;8.654;2023-06-10T06:28:11;100187.63;;;19.83;61.31
76378;BME280;65200;49.500;8.654;2023-06-10T06:30:37;100186.88;;;19.87;63.41
76378;BME280;65200;49.500;8.654;2023-06-10T06:33:03;100181.53;;;19.97;61.91
76378;BME280;65200;49.500;8.654;2023-06-10T06:35:30;100184.91;;;20.04;61.58
76378;BME280;65200;49.500;8.654;2023-06-10T06:37:57;100175.19;;;20.13;63.56
76378;BME280;65200;49.500;8.654;2023-06-10T06:40:25;100185.41;;;20.23;60.71
76378;BME280;65200;49.500;8.654;2023-06-10T06:42:51;100183.94;;;20.42;60.46
76378;BME280;65200;49.500;8.654;2023-06-10T06:45:19;100188.91;;;20.50;60.74
76378;BME280;65200;49.500;8.654;2023-06-10T06:47:45;100189.06;;;20.65;60.82
76378;BME280;65200;49.500;8.654;2023-06-10T06:50:12;100188.34;;;20.80;59.16
76378;BME280;65200;49.500;8.654;2023-06-10T06:52:39;100196.34;;;20.91;60.71
76378;BME280;65200;49.500;8.654;2023-06-10T06:55:06;100188.81;;;21.03;58.25
76378;BME280;65200;49.500;8.654;2023-06-10T06:57:32;100192.16;;;21.15;57.15
76378;BME280;65200;49.500;8.654;2023-06-10T06:59:59;100188.69;;;21.25;58.00
76378;BME280;65200;49.500;8.654;2023-06-10T07:02:26;100195.59;;;21.42;57.69
76378;BME280;65200;49.500;8.654;2023-06-10T07:04:53;100194.53;;;21.48;58.93
76378;BME280;65200;49.500;8.654;2023-06-10T07:07:21;100186.69;;;21.62;57.01
76378;BME280;65200;49.500;8.654;2023-06-10T07:09:47;100185.06;;;21.66;58.70
76378;BME280;65200;49.500;8.654;2023-06-10T07:12:14;100188.41;;;21.78;57.02
76378;BME280;65200;49.500;8.654;2023-06-10T07:14:40;100192.03;;;22.04;56.09
76378;BME280;65200;49.500;8.654;2023-06-10T07:17:06;100195.44;;;22.56;55.96
76378;BME280;65200;49.500;8.654;2023-06-10T07:19:34;100198.69;;;23.33;54.60
76378;BME280;65200;49.500;8.654;2023-06-10T07:22:01;100198.91;;;24.54;48.80
76378;BME280;65200;49.500;8.654;2023-06-10T07:24:27;100194.50;;;25.49;46.43
76378;BME280;65200;49.500;8.654;2023-06-10T07:26:54;100194.13;;;26.21;44.76
76378;BME280;65200;49.500;8.654;2023-06-10T07:29:20;100194.72;;;26.55;43.77
76378;BME280;65200;49.500;8.654;2023-06-10T07:31:46;100190.97;;;26.83;45.18
76378;BME280;65200;49.500;8.654;2023-06-10T07:34:13;100190.88;;;26.88;41.68
76378;BME280;65200;49.500;8.654;2023-06-10T07:36:41;100189.47;;;26.91;42.64
76378;BME280;65200;49.500;8.654;2023-06-10T07:39:07;100194.31;;;27.13;41.52
76378;BME280;65200;49.500;8.654;2023-06-10T07:41:34;100188.25;;;27.43;40.86
76378;BME280;65200;49.500;8.654;2023-06-10T07:44:00;100189.78;;;27.03;40.64
76378;BME280;65200;49.500;8.654;2023-06-10T07:46:26;100185.84;;;27.23;42.23
76378;BME280;65200;49.500;8.654;2023-06-10T07:48:53;100186.72;;;27.05;42.41
76378;BME280;65200;49.500;8.654;2023-06-10T07:51:20;100183.88;;;27.10;43.46
76378;BME280;65200;49.500;8.654;2023-06-10T07:53:48;100185.09;;;27.49;40.29
76378;BME280;65200;49.500;8.654;2023-06-10T07:56:15;100183.16;;;27.77;40.36
76378;BME280;65200;49.500;8.654;2023-06-10T07:58:41;100177.97;;;27.89;42.05
76378;BME280;65200;49.500;8.654;2023-06-10T08:01:07;100180.81;;;27.84;42.75
76378;BME280;65200;49.500;8.654;2023-06-10T08:03:34;100183.84;;;27.96;41.95
76378;BME280;65200;49.500;8.654;2023-06-10T08:06:00;100184.19;;;27.81;40.61
76378;BME280;65200;49.500;8.654;2023-06-10T08:08:27;100184.38;;;27.98;37.98
76378;BME280;65200;49.500;8.654;2023-06-10T08:10:55;100181.50;;;28.52;39.72
76378;BME280;65200;49.500;8.654;2023-06-10T08:13:21;100182.28;;;28.53;36.95
76378;BME280;65200;49.500;8.654;2023-06-10T08:15:47;100175.97;;;28.74;37.42
76378;BME280;65200;49.500;8.654;2023-06-10T08:18:16;100181.97;;;28.98;39.61
76378;BME280;65200;49.500;8.654;2023-06-10T08:20:42;100180.34;;;28.97;37.78
76378;BME280;65200;49.500;8.654;2023-06-10T08:23:09;100176.19;;;29.08;37.45
76378;BME280;65200;49.500;8.654;2023-06-10T08:25:35;100177.75;;;29.01;39.66
76378;BME280;65200;49.500;8.654;2023-06-10T08:28:03;100181.59;;;29.13;38.88
76378;BME280;65200;49.500;8.654;2023-06-10T08:30:29;100189.97;;;29.30;35.54
76378;BME280;65200;49.500;8.654;2023-06-10T08:32:56;100174.63;;;28.94;40.03
76378;BME280;65200;49.500;8.654;2023-06-10T08:35:22;100179.16;;;28.10;39.96
76378;BME280;65200;49.500;8.654;2023-06-10T08:37:49;100182.97;;;28.36;39.96
76378;BME280;65200;49.500;8.654;2023-06-10T08:40:15;100172.00;;;26.82;41.83
76378;BME280;65200;49.500;8.654;2023-06-10T08:42:45;100177.94;;;26.89;42.55
76378;BME280;65200;49.500;8.654;2023-06-10T08:45:17;100173.06;;;27.59;38.73
76378;BME280;65200;49.500;8.654;2023-06-10T08:47:45;100170.78;;;28.37;39.45
76378;BME280;65200;49.500;8.654;2023-06-10T08:50:11;100174.53;;;28.19;40.61
76378;BME280;65200;49.500;8.654;2023-06-10T08:52:42;100160.81;;;27.92;42.95
76378;BME280;65200;49.500;8.654;2023-06-10T08:55:11;100167.72;;;28.39;39.49
76378;BME280;65200;49.500;8.654;2023-06-10T08:57:38;100162.31;;;27.98;41.53
76378;BME280;65200;49.500;8.654;2023-06-10T09:00:08;100159.44;;;28.16;41.06
76378;BME280;65200;49.500;8.654;2023-06-10T09:02:36;100159.97;;;28.63;40.48
76378;BME280;65200;49.500;8.654;2023-06-10T09:05:03;100155.38;;;29.02;41.11
76378;BME280;65200;49.500;8.654;2023-06-10T09:07:30;100154.59;;;28.58;38.80
76378;BME280;65200;49.500;8.654;2023-06-10T09:10:00;100140.66;;;28.63;37.00
76378;BME280;65200;49.500;8.654;2023-06-10T09:12:28;100139.56;;;28.94;37.43
76378;BME280;65200;49.500;8.654;2023-06-10T09:14:54;100147.59;;;29.35;35.12
76378;BME280;65200;49.500;8.654;2023-06-10T09:17:21;100152.03;;;28.83;36.58
76378;BME280;65200;49.500;8.654;2023-06-10T09:19:50;100156.25;;;28.59;37.03
76378;BME280;65200;49.500;8.654;2023-06-10T09:22:19;100151.22;;;29.13;32.68
76378;BME280;65200;49.500;8.654;2023-06-10T09:24:46;100154.03;;;28.69;35.72
76378;BME280;65200;49.500;8.654;2023-06-10T09:27:13;100148.31;;;28.66;35.37
76378;BME280;65200;49.500;8.654;2023-06-10T09:29:46;100138.16;;;29.05;34.45
76378;BME280;65200;49.500;8.654;2023-06-10T09:32:14;100145.69;;;28.83;35.91
76378;BME280;65200;49.500;8.654;2023-06-10T09:34:41;100142.91;;;29.35;32.29
76378;BME280;65200;49.500;8.654;2023-06-10T09:37:09;100146.19;;;28.85;34.29
76378;BME280;65200;49.500;8.654;2023-06-10T09:39:37;100138.00;;;28.13;35.60
76378;BME280;65200;49.500;8.654;2023-06-10T09:42:15;100144.38;;;27.87;35.55
76378;BME280;65200;49.500;8.654;2023-06-10T09:44:41;100137.91;;;28.63;35.62
76378;BME280;65200;49.500;8.654;2023-06-10T09:47:08;100137.94;;;29.15;35.10
76378;BME280;65200;49.500;8.654;2023-06-10T09:49:37;100141.00;;;28.61;35.15
76378;BME280;65200;49.500;8.654;2023-06-10T09:52:05;100139.63;;;28.37;35.56
76378;BME280;65200;49.500;8.654;2023-06-10T09:54:33;100145.41;;;28.62;34.63
76378;BME280;65200;49.500;8.654;2023-06-10T09:57:07;100144.16;;;28.99;33.21
76378;BME280;65200;49.500;8.654;2023-06-10T09:59:33;100127.41;;;29.26;34.42
76378;BME280;65200;49.500;8.654;2023-06-10T10:02:01;100138.88;;;29.58;33.32
76378;BME280;65200;49.500;8.654;2023-06-10T10:04:27;100130.03;;;29.79;32.17
76378;BME280;65200;49.500;8.654;2023-06-10T10:06:54;100128.97;;;29.58;33.73
76378;BME280;65200;49.500;8.654;2023-06-10T10:09:21;100126.16;;;29.97;35.82
76378;BME280;65200;49.500;8.654;2023-06-10T10:11:49;100127.47;;;29.43;33.77
76378;BME280;65200;49.500;8.654;2023-06-10T10:14:18;100121.88;;;29.17;33.81
76378;BME280;65200;49.500;8.654;2023-06-10T10:16:46;100120.50;;;29.45;33.86
76378;BME280;65200;49.500;8.654;2023-06-10T10:19:19;100115.28;;;29.44;33.85
76378;BME280;65200;49.500;8.654;2023-06-10T10:21:50;100126.13;;;29.71;29.88
76378;BME280;65200;49.500;8.654;2023-06-10T10:24:21;100116.91;;;30.52;31.99
76378;BME280;65200;49.500;8.654;2023-06-10T10:26:52;100123.25;;;30.78;29.32
76378;BME280;65200;49.500;8.654;2023-06-10T10:29:24;100120.19;;;31.09;28.40
76378;BME280;65200;49.500;8.654;2023-06-10T10:31:52;100116.53;;;30.71;27.84
76378;BME280;65200;49.500;8.654;2023-06-10T10:34:27;100121.16;;;31.13;31.69
76378;BME280;65200;49.500;8.654;2023-06-10T10:36:57;100121.28;;;31.25;29.05
76378;BME280;65200;49.500;8.654;2023-06-10T10:39:24;100116.78;;;31.04;31.51
76378;BME280;65200;49.500;8.654;2023-06-10T10:41:54;100108.88;;;30.68;31.63
76378;BME280;65200;49.500;8.654;2023-06-10T10:44:22;100106.69;;;30.36;31.75
76378;BME280;65200;49.500;8.654;2023-06-10T10:46:50;100102.19;;;30.86;30.21
76378;BME280;65200;49.500;8.654;2023-06-10T10:49:17;100116.75;;;31.12;30.62
76378;BME280;65200;49.500;8.654;2023-06-10T10:51:55;100114.66;;;31.76;29.10
76378;BME280;65200;49.500;8.654;2023-06-10T10:54:28;100102.81;;;31.29;27.98
76378;BME280;65200;49.500;8.654;2023-06-10T10:57:20;100109.81;;;31.73;28.89
76378;BME280;65200;49.500;8.654;2023-06-10T10:59:55;100106.78;;;31.86;28.14
76378;BME280;65200;49.500;8.654;2023-06-10T11:02:35;100116.47;;;32.01;26.28
76378;BME280;65200;49.500;8.654;2023-06-10T11:05:05;100112.31;;;31.86;30.34
76378;BME280;65200;49.500;8.654;2023-06-10T11:07:32;100105.88;;;31.74;25.72
76378;BME280;65200;49.500;8.654;2023-06-10T11:09:59;100104.19;;;31.81;27.96
76378;BME280;65200;49.500;8.654;2023-06-10T11:12:42;100108.28;;;31.55;28.44
76378;BME280;65200;49.500;8.654;2023-06-10T11:15:18;100099.22;;;31.37;29.15
76378;BME280;65200;49.500;8.654;2023-06-10T11:18:09;100106.19;;;31.52;30.48
76378;BME280;65200;49.500;8.654;2023-06-10T11:20:51;100103.16;;;31.36;33.03
76378;BME280;65200;49.500;8.654;2023-06-10T11:23:34;100098.97;;;31.59;31.80
76378;BME280;65200;49.500;8.654;2023-06-10T11:26:21;100101.06;;;31.25;28.82
76378;BME280;65200;49.500;8.654;2023-06-10T11:29:03;100094.34;;;31.63;27.78
76378;BME280;65200;49.500;8.654;2023-06-10T11:31:31;100096.66;;;31.90;28.18
76378;BME280;65200;49.500;8.654;2023-06-10T11:33:59;100088.22;;;31.20;29.96
76378;BME280;65200;49.500;8.654;2023-06-10T11:36:27;100082.97;;;31.65;27.69
76378;BME280;65200;49.500;8.654;2023-06-10T11:38:56;100083.59;;;32.12;28.58
76378;BME280;65200;49.500;8.654;2023-06-10T11:41:23;100080.84;;;32.24;26.44
76378;BME280;65200;49.500;8.654;2023-06-10T11:43:50;100085.50;;;32.32;27.71
76378;BME280;65200;49.500;8.654;2023-06-10T11:46:18;100083.63;;;31.82;30.97
76378;BME280;65200;49.500;8.654;2023-06-10T11:48:48;100084.84;;;31.73;27.60
76378;BME280;65200;49.500;8.654;2023-06-10T11:51:15;100079.09;;;30.82;29.50
76378;BME280;65200;49.500;8.654;2023-06-10T11:53:43;100079.34;;;29.92;30.65
76378;BME280;65200;49.500;8.654;2023-06-10T11:56:10;100077.69;;;30.08;31.07
76378;BME280;65200;49.500;8.654;2023-06-10T11:58:37;100087.38;;;30.91;31.80
76378;BME280;65200;49.500;8.654;2023-06-10T12:01:04;100073.50;;;30.99;33.15
76378;BME280;65200;49.500;8.654;2023-06-10T12:03:37;100081.44;;;31.47;28.33
76378;BME280;65200;49.500;8.654;2023-06-10T12:06:04;100079.28;;;31.52;26.97
76378;BME280;65200;49.500;8.654;2023-06-10T12:08:31;100076.41;;;32.10;28.26
76378;BME280;65200;49.500;8.654;2023-06-10T12:10:59;100068.38;;;32.18;26.82
76378;BME280;65200;49.500;8.654;2023-06-10T12:13:26;100069.03;;;31.15;27.97
76378;BME280;65200;49.500;8.654;2023-06-10T12:15:54;100072.78;;;30.56;29.74
76378;BME280;65200;49.500;8.654;2023-06-10T12:18:21;100073.53;;;31.78;30.21
76378;BME280;65200;49.500;8.654;2023-06-10T12:20:50;100060.34;;;31.54;28.50
76378;BME280;65200;49.500;8.654;2023-06-10T12:23:18;100071.81;;;31.44;29.51
76378;BME280;65200;49.500;8.654;2023-06-10T12:25:52;100078.28;;;30.73;31.75
76378;BME280;65200;49.500;8.654;2023-06-10T12:28:21;100073.66;;;30.39;30.79
76378;BME280;65200;49.500;8.654;2023-06-10T12:30:47;100069.88;;;29.93;31.64
76378;BME280;65200;49.500;8.654;2023-06-10T12:33:17;100069.91;;;30.99;29.44
76378;BME280;65200;49.500;8.654;2023-06-10T12:35:47;100071.66;;;31.99;29.96
76378;BME280;65200;49.500;8.654;2023-06-10T12:38:20;100073.50;;;31.86;29.82
76378;BME280;65200;49.500;8.654;2023-06-10T12:40:47;100068.88;;;32.32;28.75
76378;BME280;65200;49.500;8.654;2023-06-10T12:43:18;100074.69;;;32.71;30.18
76378;BME280;65200;49.500;8.654;2023-06-10T12:45:45;100072.47;;;32.65;26.26
76378;BME280;65200;49.500;8.654;2023-06-10T12:48:16;100066.22;;;32.56;31.39
76378;BME280;65200;49.500;8.654;2023-06-10T12:50:44;100065.47;;;32.79;27.72
76378;BME280;65200;49.500;8.654;2023-06-10T12:53:11;100072.09;;;32.22;28.76